Time;durP1;ratioP1;P1;durP2;ratioP2;P2;SDS_P1;SDS_P2;PMS_P1;PMS_P2;Temp;Humidity;BMP_temperature;BMP_pressure;BME280_temperature;BME280_humidity;BME280_pressure;Samples;Min_cycle;Max_cycle;Signal;HPM_P1;HPM_P2
2024/01/10 00:05:04;;;;;;;77.80;49.20;;;22.70;46.30;;;;;;222785;1267;25089;-56
2024/01/10 00:10:08;;;;;;;73.90;48.60;;;22.60;46.00;;;;;;223351;1265;24206;-55
2024/01/10 00:15:13;;;;;;;67.60;46.30;;;22.70;45.80;;;;;;222548;1251;24278;-56
2024/01/10 00:20:18;;;;;;;69.00;46.10;;;22.80;47.10;;;;;;222519;1262;22513;-56
2024/01/10 00:25:23;;;;;;;63.30;46.00;;;22.70;46.20;;;;;;222519;1264;22646;-56
2024/01/10 00:30:27;;;;;;;71.70;47.00;;;22.80;45.50;;;;;;222604;1249;22626;-56
2024/01/10 00:35:32;;;;;;;71.80;45.40;;;22.90;44.90;;;;;;222393;1265;25514;-55
2024/01/10 00:40:38;;;;;;;66.80;45.70;;;23.00;44.50;;;;;;222403;1254;22639;-56
2024/01/10 00:45:42;;;;;;;65.40;43.70;;;23.00;44.50;;;;;;222343;1268;25287;-57
2024/01/10 00:50:47;;;;;;;67.50;45.30;;;23.00;44.60;;;;;;222857;1260;24301;-55
2024/01/10 00:55:51;;;;;;;60.90;42.90;;;23.00;44.30;;;;;;222228;1262;22518;-54
2024/01/10 01:00:56;;;;;;;64.60;43.20;;;23.10;44.80;;;;;;223518;1246;22501;-55
2024/01/10 01:06:01;;;;;;;60.20;43.30;;;23.10;44.00;;;;;;221568;1261;22670;-56
2024/01/10 01:11:05;;;;;;;58.80;42.70;;;23.10;44.00;;;;;;222281;1262;23096;-56
2024/01/10 01:16:11;;;;;;;61.10;42.00;;;23.10;43.90;;;;;;222213;1264;22550;-52
2024/01/10 01:21:16;;;;;;;61.80;40.60;;;23.10;43.80;;;;;;221265;1254;22703;-55
2024/01/10 01:26:21;;;;;;;65.50;41.60;;;23.10;43.80;;;;;;221142;1265;24222;-55
2024/01/10 01:31:25;;;;;;;57.90;40.50;;;23.00;43.70;;;;;;221167;1265;24665;-53
2024/01/10 01:36:30;;;;;;;54.80;40.00;;;23.00;43.70;;;;;;221392;1266;22529;-55
2024/01/10 01:41:35;;;;;;;56.30;40.90;;;23.00;43.60;;;;;;222968;1265;25323;-56
2024/01/10 01:46:40;;;;;;;57.20;40.10;;;23.10;43.70;;;;;;221929;1253;22972;-53
2024/01/10 01:51:46;;;;;;;60.70;40.80;;;23.10;43.70;;;;;;222597;1265;24092;-55
2024/01/10 01:56:52;;;;;;;52.50;38.80;;;23.20;43.20;;;;;;222704;1268;22542;-54
2024/01/10 02:08:35;;;;;;;53.50;37.10;;;23.20;43.50;;;;;;222661;1257;22523;-56
2024/01/10 02:13:40;;;;;;;51.70;37.10;;;23.20;43.10;;;;;;222852;1263;25708;-55
2024/01/10 02:18:45;;;;;;;53.30;38.30;;;23.20;43.20;;;;;;222543;1265;22643;-53
2024/01/10 02:23:50;;;;;;;53.20;37.60;;;23.10;43.00;;;;;;222299;1263;24451;-55
2024/01/10 02:28:54;;;;;;;50.80;37.00;;;23.10;42.90;;;;;;222537;1259;23925;-54
2024/01/10 02:33:58;;;;;;;45.50;35.10;;;23.20;42.90;;;;;;222149;1268;22736;-55
2024/01/10 02:39:06;;;;;;;50.30;34.90;;;23.20;42.90;;;;;;222564;1262;24322;-55
2024/01/10 02:44:10;;;;;;;47.90;35.50;;;23.10;42.90;;;;;;222683;1267;24176;-55
2024/01/10 02:49:15;;;;;;;47.10;34.20;;;23.10;42.80;;;;;;222693;1268;24225;-55
2024/01/10 02:54:19;;;;;;;46.90;34.30;;;23.10;42.80;;;;;;222360;1265;22543;-56
2024/01/10 02:59:23;;;;;;;47.20;34.00;;;23.20;43.00;;;;;;222694;1266;22640;-56
2024/01/10 03:04:28;;;;;;;44.80;32.90;;;23.10;43.10;;;;;;222730;1268;22640;-56
2024/01/10 03:09:33;;;;;;;44.20;32.40;;;23.20;43.20;;;;;;222458;1262;25226;-54
2024/01/10 03:14:37;;;;;;;40.80;31.10;;;23.30;42.40;;;;;;222821;1267;22630;-55
2024/01/10 03:19:43;;;;;;;43.90;32.80;;;23.40;42.20;;;;;;223055;1265;22532;-55
2024/01/10 03:24:47;;;;;;;43.60;33.30;;;23.30;42.70;;;;;;222757;1261;24497;-55
2024/01/10 03:29:51;;;;;;;40.00;32.00;;;23.20;42.50;;;;;;222496;1255;23916;-56
2024/01/10 03:34:56;;;;;;;43.10;32.20;;;23.20;42.40;;;;;;222612;1268;25318;-56
2024/01/10 03:40:00;;;;;;;45.00;32.40;;;23.20;42.50;;;;;;222668;1267;22540;-56
2024/01/10 03:45:05;;;;;;;40.80;32.10;;;23.10;42.40;;;;;;222632;1268;24190;-55
2024/01/10 03:50:10;;;;;;;42.60;31.60;;;23.20;42.30;;;;;;222416;1251;22528;-56
2024/01/10 03:55:15;;;;;;;40.20;31.10;;;23.30;42.20;;;;;;222662;1267;25482;-56
2024/01/10 04:00:20;;;;;;;40.90;30.70;;;23.20;42.20;;;;;;222587;1260;22505;-55
2024/01/10 04:05:25;;;;;;;40.10;30.50;;;23.20;42.10;;;;;;222321;1256;24374;-56
2024/01/10 04:10:29;;;;;;;41.20;30.20;;;23.20;42.20;;;;;;222784;1266;25526;-54
2024/01/10 04:15:34;;;;;;;39.60;30.70;;;23.20;42.10;;;;;;222635;1267;24189;-55
2024/01/10 04:20:39;;;;;;;39.00;29.90;;;23.20;42.20;;;;;;222535;1266;22527;-55
2024/01/10 04:25:43;;;;;;;38.80;29.60;;;23.20;42.20;;;;;;222753;1251;24388;-54
2024/01/10 04:30:47;;;;;;;39.60;30.40;;;23.20;42.10;;;;;;222580;1267;22521;-55
2024/01/10 04:35:52;;;;;;;39.30;29.20;;;23.40;41.80;;;;;;222381;1268;25350;-55
2024/01/10 04:40:55;;;;;;;39.50;30.80;;;23.30;41.80;;;;;;222682;1264;22523;-56
2024/01/10 04:46:00;;;;;;;38.20;29.00;;;23.30;41.50;;;;;;222632;1266;24259;-55
2024/01/10 04:51:05;;;;;;;43.10;29.90;;;23.20;41.80;;;;;;222646;1266;22524;-56
2024/01/10 04:56:10;;;;;;;41.00;30.20;;;23.20;42.00;;;;;;222272;1268;22515;-55
2024/01/10 05:01:14;;;;;;;38.80;28.60;;;23.20;41.90;;;;;;222377;1260;24211;-56
2024/01/10 05:06:19;;;;;;;39.70;29.50;;;23.20;41.80;;;;;;222298;1268;22751;-55
2024/01/10 05:11:27;;;;;;;38.40;29.30;;;23.30;42.00;;;;;;222640;1267;22682;-55
2024/01/10 05:16:32;;;;;;;40.20;30.10;;;23.20;42.00;;;;;;222706;1267;24190;-54
2024/01/10 05:21:36;;;;;;;40.70;29.60;;;23.00;42.10;;;;;;222276;1257;24189;-53
2024/01/10 05:26:40;;;;;;;41.80;30.20;;;23.10;42.00;;;;;;222666;1260;22756;-56
2024/01/10 05:31:46;;;;;;;38.30;29.70;;;23.10;41.80;;;;;;222360;1267;25345;-56
2024/01/10 05:36:50;;;;;;;41.00;30.20;;;23.00;41.80;;;;;;222531;1266;23436;-56
2024/01/10 05:41:54;;;;;;;40.40;28.40;;;23.00;41.80;;;;;;222211;1268;24183;-56
2024/01/10 05:46:59;;;;;;;38.10;29.30;;;22.80;42.10;;;;;;222089;1267;473918;-55
2024/01/10 05:52:04;;;;;;;38.60;29.40;;;22.60;43.30;;;;;;222483;1254;24193;-54
2024/01/10 05:57:08;;;;;;;39.20;29.50;;;22.60;43.20;;;;;;222292;1266;22534;-54
2024/01/10 06:02:16;;;;;;;39.10;29.10;;;22.80;43.80;;;;;;222305;1261;22550;-55
2024/01/10 06:07:20;;;;;;;37.90;29.40;;;23.10;41.70;;;;;;222019;1264;24350;-55
2024/01/10 06:12:28;;;;;;;36.40;28.60;;;23.10;41.80;;;;;;225063;1256;23403;-55
2024/01/10 06:17:33;;;;;;;37.30;29.20;;;23.20;41.60;;;;;;223216;1258;24247;-54
2024/01/10 06:22:37;;;;;;;38.40;29.20;;;23.10;41.80;;;;;;222548;1264;22541;-55
2024/01/10 06:27:42;;;;;;;37.40;28.50;;;23.00;42.30;;;;;;222524;1261;22538;-54
2024/01/10 06:32:46;;;;;;;37.20;28.90;;;23.10;41.80;;;;;;222764;1263;22518;-54
2024/01/10 06:37:50;;;;;;;37.10;28.40;;;23.10;42.10;;;;;;222355;1256;24205;-55
2024/01/10 06:42:55;;;;;;;37.50;29.00;;;22.90;42.20;;;;;;222188;1258;25176;-54
2024/01/10 06:48:00;;;;;;;39.00;30.10;;;22.80;42.30;;;;;;222762;1267;22532;-55
2024/01/10 06:53:04;;;;;;;39.10;29.60;;;22.70;42.80;;;;;;222427;1254;22646;-49
2024/01/10 06:58:09;;;;;;;38.40;28.00;;;22.60;42.60;;;;;;222368;1267;23826;-49
2024/01/10 07:03:13;;;;;;;41.30;28.70;;;22.50;42.80;;;;;;222684;1261;22603;-51
2024/01/10 07:08:18;;;;;;;40.70;28.70;;;22.60;43.00;;;;;;222458;1267;24192;-48
2024/01/10 07:13:23;;;;;;;41.60;29.60;;;22.60;43.30;;;;;;222322;1267;22567;-49
2024/01/10 07:18:29;;;;;;;37.10;28.70;;;22.60;43.50;;;;;;222367;1261;22599;-53
2024/01/10 07:23:34;;;;;;;37.00;28.20;;;22.70;44.80;;;;;;222365;1266;25284;-53
2024/01/10 07:28:39;;;;;;;40.20;29.10;;;22.80;44.00;;;;;;222092;1264;22666;-51
2024/01/10 07:33:43;;;;;;;39.20;27.60;;;23.00;44.00;;;;;;223048;1267;22791;-51
2024/01/10 07:38:47;;;;;;;43.10;27.80;;;23.10;44.00;;;;;;221910;1264;23917;-50
2024/01/10 07:43:51;;;;;;;39.80;28.10;;;23.10;44.30;;;;;;222011;1264;22570;-50
2024/01/10 07:48:56;;;;;;;38.10;29.50;;;23.10;44.10;;;;;;222134;1251;23623;-48
2024/01/10 07:54:00;;;;;;;43.40;30.90;;;22.90;44.30;;;;;;222000;1260;24309;-52
2024/01/10 07:59:06;;;;;;;41.60;30.10;;;22.80;44.80;;;;;;222135;1260;22626;-50
2024/01/10 08:04:12;;;;;;;37.60;28.90;;;22.70;45.30;;;;;;222591;1262;24188;-51
2024/01/10 08:09:19;;;;;;;42.10;30.50;;;22.70;44.80;;;;;;222816;1257;22520;-54
2024/01/10 08:14:24;;;;;;;46.80;30.60;;;22.50;45.40;;;;;;222430;1264;25325;-53
2024/01/10 08:19:28;;;;;;;44.00;33.40;;;22.60;44.30;;;;;;222606;1266;22657;-52
2024/01/10 08:24:33;;;;;;;46.90;32.10;;;22.50;43.60;;;;;;223973;1263;24192;-52
2024/01/10 08:29:37;;;;;;;45.90;34.00;;;22.50;43.80;;;;;;229050;1262;24360;-50
2024/01/10 08:34:41;;;;;;;45.50;35.30;;;22.60;42.30;;;;;;224238;1263;25446;-54
2024/01/10 08:39:46;;;;;;;44.40;34.40;;;22.80;41.90;;;;;;222286;1260;22537;-47
2024/01/10 08:44:50;;;;;;;41.80;31.80;;;23.10;41.70;;;;;;222400;1261;24187;-51
2024/01/10 08:49:54;;;;;;;42.90;32.90;;;23.20;41.60;;;;;;222243;1260;22518;-49
2024/01/10 08:54:58;;;;;;;43.40;31.80;;;23.30;41.70;;;;;;222323;1260;24237;-49
2024/01/10 09:00:06;;;;;;;41.10;31.50;;;23.30;41.60;;;;;;222167;1264;25476;-52
2024/01/10 09:05:10;;;;;;;51.60;34.80;;;23.30;41.60;;;;;;222409;1263;22654;-50
2024/01/10 09:10:15;;;;;;;40.70;31.90;;;23.20;43.20;;;;;;222221;1261;22557;-51
2024/01/10 09:15:20;;;;;;;46.80;32.10;;;23.10;45.00;;;;;;222135;1260;22528;-50
2024/01/10 09:20:24;;;;;;;44.20;33.20;;;23.00;44.70;;;;;;222588;1251;24417;-53
2024/01/10 09:25:29;;;;;;;45.80;32.80;;;22.90;44.20;;;;;;222534;1261;23309;-51
2024/01/10 09:30:33;;;;;;;48.40;33.10;;;22.60;44.50;;;;;;222459;1267;22471;-52
2024/01/10 09:35:39;;;;;;;42.20;32.60;;;22.60;44.80;;;;;;222392;1262;24353;-53
2024/01/10 09:40:44;;;;;;;46.70;34.00;;;22.60;44.30;;;;;;222198;1264;22652;-53
2024/01/10 09:45:49;;;;;;;44.80;33.50;;;22.50;44.50;;;;;;224960;1256;22524;-53
2024/01/10 09:50:53;;;;;;;44.10;33.10;;;22.50;44.80;;;;;;224606;1264;23229;-52
2024/01/10 09:56:01;;;;;;;40.30;32.60;;;22.60;44.20;;;;;;223026;1267;22576;-53
2024/01/10 10:01:06;;;;;;;47.90;35.00;;;22.60;43.40;;;;;;226555;1265;22531;-55
2024/01/10 10:06:12;;;;;;;43.30;33.40;;;22.70;42.20;;;;;;222960;1260;25170;-51
2024/01/10 10:11:19;;;;;;;44.30;33.90;;;22.70;42.60;;;;;;222659;1260;26361;-55
2024/01/10 10:16:25;;;;;;;47.10;33.80;;;22.90;42.50;;;;;;222553;1264;24450;-52
2024/01/10 10:21:30;;;;;;;43.60;33.30;;;23.00;42.50;;;;;;222930;1260;22912;-53
2024/01/10 10:26:35;;;;;;;45.40;34.30;;;23.10;42.00;;;;;;222338;1261;25398;-52
2024/01/10 10:31:39;;;;;;;41.40;33.20;;;23.20;41.90;;;;;;222774;1265;23907;-53
2024/01/10 10:36:43;;;;;;;44.00;33.70;;;23.10;42.10;;;;;;222347;1268;22920;-52
2024/01/10 10:41:50;;;;;;;44.90;33.10;;;23.00;42.40;;;;;;222294;1265;24210;-51
2024/01/10 10:46:55;;;;;;;42.60;33.10;;;23.00;42.10;;;;;;222332;1265;25441;-54
2024/01/10 10:52:16;;;;;;;47.80;34.10;;;22.90;42.90;;;;;;222374;1250;23410;-55
2024/01/10 10:57:21;;;;;;;43.30;33.50;;;22.80;42.20;;;;;;222370;1268;22630;-54
2024/01/10 11:02:26;;;;;;;46.60;34.20;;;22.80;42.20;;;;;;222392;1264;25294;-52
2024/01/10 11:07:44;;;;;;;44.40;34.40;;;22.70;42.20;;;;;;222754;1266;22685;-51
2024/01/10 11:13:02;;;;;;;41.20;33.50;;;22.70;42.10;;;;;;222446;1262;24192;-56
2024/01/10 11:18:11;;;;;;;43.10;33.40;;;22.60;42.30;;;;;;222363;1255;25828;-54
2024/01/10 11:23:49;;;;;;;45.60;34.20;;;22.60;42.30;;;;;;222495;1268;24203;-55
2024/01/10 11:28:53;;;;;;;44.40;33.40;;;22.50;42.20;;;;;;222690;1265;22539;-54
2024/01/10 11:34:00;;;;;;;46.00;35.10;;;22.50;42.40;;;;;;222303;1264;25340;-52
2024/01/10 11:39:12;;;;;;;43.90;32.10;;;22.40;42.10;;;;;;222454;1262;22736;-52
2024/01/10 11:44:22;;;;;;;42.80;32.40;;;22.60;42.30;;;;;;222365;1257;22524;-50
2024/01/10 11:49:27;;;;;;;48.10;34.60;;;22.90;42.60;;;;;;223691;1261;22539;-53
2024/01/10 11:54:48;;;;;;;47.30;32.70;;;23.00;43.10;;;;;;223131;1267;23675;-53
2024/01/10 11:59:54;;;;;;;42.40;31.90;;;23.30;42.90;;;;;;222493;1264;23122;-51
2024/01/10 12:04:58;;;;;;;42.50;32.10;;;23.30;43.70;;;;;;222366;1265;24215;-54
2024/01/10 12:10:04;;;;;;;41.90;33.30;;;23.30;44.10;;;;;;222160;1265;22517;-55
2024/01/10 12:15:09;;;;;;;41.80;32.00;;;23.10;44.70;;;;;;222469;1265;22520;-50
2024/01/10 12:20:16;;;;;;;41.60;33.00;;;23.00;45.80;;;;;;222619;1258;24242;-49
2024/01/10 12:25:21;;;;;;;46.80;32.80;;;22.90;45.50;;;;;;222422;1265;22680;-52
2024/01/10 12:30:25;;;;;;;42.60;32.90;;;22.80;46.60;;;;;;222142;1260;24400;-53
2024/01/10 12:35:29;;;;;;;41.50;32.30;;;22.70;46.80;;;;;;222628;1266;25462;-53
2024/01/10 12:40:34;;;;;;;41.10;32.20;;;22.60;46.60;;;;;;223084;1266;24352;-52
2024/01/10 12:45:38;;;;;;;40.80;31.50;;;22.60;46.90;;;;;;222866;1266;25278;-51
2024/01/10 12:50:42;;;;;;;40.90;32.30;;;22.50;47.30;;;;;;222676;1266;22528;-53
2024/01/10 12:55:47;;;;;;;39.20;31.60;;;22.60;47.60;;;;;;222509;1246;22527;-51
2024/01/10 13:00:51;;;;;;;43.10;32.30;;;22.50;47.00;;;;;;223031;1263;22513;-53
2024/01/10 13:05:56;;;;;;;49.50;35.90;;;22.40;47.60;;;;;;222678;1261;25092;-50
2024/01/10 13:11:00;;;;;;;49.70;36.20;;;22.40;44.50;;;;;;222846;1247;25546;-54
2024/01/10 13:16:05;;;;;;;49.50;35.40;;;22.60;44.50;;;;;;222836;1263;23587;-52
2024/01/10 13:21:10;;;;;;;46.20;34.70;;;22.70;44.70;;;;;;222522;1266;22699;-55
2024/01/10 13:26:15;;;;;;;43.50;34.00;;;23.00;44.60;;;;;;222616;1259;22649;-52
2024/01/10 13:31:20;;;;;;;44.80;33.60;;;23.20;44.30;;;;;;223348;1268;22636;-52
2024/01/10 13:36:24;;;;;;;42.20;33.50;;;23.40;44.20;;;;;;224521;1262;25230;-53
2024/01/10 13:41:28;;;;;;;43.30;33.40;;;23.50;44.00;;;;;;222396;1261;24306;-53
2024/01/10 13:46:34;;;;;;;46.20;33.40;;;23.40;44.20;;;;;;222505;1265;23412;-51
2024/01/10 13:51:38;;;;;;;42.70;32.40;;;23.20;44.30;;;;;;222363;1267;24260;-53
2024/01/10 13:56:45;;;;;;;42.10;31.60;;;23.10;44.40;;;;;;222710;1266;22533;-54
2024/01/10 14:01:50;;;;;;;45.50;34.10;;;22.90;45.10;;;;;;222346;1261;22692;-51
2024/01/10 14:06:54;;;;;;;44.00;32.70;;;22.80;44.50;;;;;;222356;1260;24238;-53
2024/01/10 14:11:59;;;;;;;42.20;33.70;;;22.70;44.70;;;;;;222567;1260;23307;-52
2024/01/10 14:17:04;;;;;;;43.70;33.20;;;22.70;44.40;;;;;;222522;1264;22583;-53
2024/01/10 14:22:08;;;;;;;47.20;34.40;;;22.70;44.40;;;;;;222601;1264;24341;-52
2024/01/10 14:27:29;;;;;;;40.80;33.40;;;22.60;44.60;;;;;;222180;1260;25354;-51
2024/01/10 14:32:34;;;;;;;44.80;33.70;;;22.50;44.50;;;;;;222844;1267;25699;-54
2024/01/10 14:37:39;;;;;;;46.40;34.50;;;22.50;44.30;;;;;;222973;1263;23887;-53
2024/01/10 14:42:43;;;;;;;43.00;33.90;;;22.60;43.90;;;;;;221421;1271;22552;-53
2024/01/10 14:47:49;;;;;;;44.60;34.70;;;22.80;43.90;;;;;;221545;1271;22576;-53
2024/01/10 14:52:53;;;;;;;44.30;32.10;;;23.00;44.10;;;;;;221394;1271;24256;-51
2024/01/10 14:57:58;;;;;;;42.10;32.40;;;23.10;43.20;;;;;;221625;1264;24203;-50
2024/01/10 15:03:06;;;;;;;42.10;33.50;;;23.10;43.20;;;;;;222636;1260;22535;-53
2024/01/10 15:08:29;;;;;;;40.00;31.80;;;23.00;43.50;;;;;;222237;1267;22516;-54
2024/01/10 15:13:34;;;;;;;45.70;33.60;;;22.90;43.40;;;;;;223539;1264;22652;-51
2024/01/10 15:18:41;;;;;;;43.40;32.60;;;22.90;43.20;;;;;;224119;1265;24267;-53
2024/01/10 15:23:46;;;;;;;45.50;34.00;;;22.80;42.80;;;;;;224697;1260;23134;-52
2024/01/10 15:28:53;;;;;;;43.80;33.50;;;22.70;43.20;;;;;;222418;1260;24059;-50
2024/01/10 15:34:01;;;;;;;44.60;34.70;;;22.70;42.80;;;;;;222947;1255;22656;-50
2024/01/10 15:39:08;;;;;;;46.10;34.80;;;22.50;42.90;;;;;;222774;1249;22578;-51
2024/01/10 15:44:12;;;;;;;46.90;35.80;;;22.30;43.60;;;;;;222355;1267;25363;-54
2024/01/10 15:49:16;;;;;;;44.90;34.80;;;22.50;42.60;;;;;;222626;1246;24194;-52
2024/01/10 15:54:23;;;;;;;42.30;32.90;;;22.60;42.20;;;;;;222740;1256;25335;-50
2024/01/10 15:59:27;;;;;;;47.10;35.20;;;22.70;42.00;;;;;;222507;1264;22891;-48
2024/01/10 16:04:32;;;;;;;49.10;37.10;;;22.80;41.50;;;;;;222207;1260;24177;-51
2024/01/10 16:09:37;;;;;;;48.80;34.90;;;23.00;41.00;;;;;;222725;1260;24237;-49
2024/01/10 16:14:41;;;;;;;48.20;35.10;;;23.10;41.10;;;;;;222338;1263;24403;-53
2024/01/10 16:19:45;;;;;;;49.40;35.70;;;23.20;41.50;;;;;;222214;1244;24197;-50
2024/01/10 16:24:52;;;;;;;44.20;33.70;;;23.20;42.70;;;;;;222839;1262;22527;-54
2024/01/10 16:29:57;;;;;;;46.00;35.50;;;23.10;42.50;;;;;;222605;1262;22626;-49
2024/01/10 16:35:02;;;;;;;48.70;35.50;;;23.00;42.30;;;;;;222893;1263;22614;-48
2024/01/10 16:40:07;;;;;;;49.20;36.10;;;22.90;42.50;;;;;;222171;1262;24077;-49
2024/01/10 16:45:11;;;;;;;49.90;35.80;;;22.70;42.50;;;;;;222873;1261;22517;-51
2024/01/10 16:50:16;;;;;;;45.80;35.90;;;22.60;43.00;;;;;;222477;1268;23889;-50
2024/01/10 16:55:20;;;;;;;48.10;36.20;;;22.50;42.60;;;;;;222877;1265;22542;-50
2024/01/10 17:00:25;;;;;;;52.40;37.10;;;22.60;43.60;;;;;;222467;1256;22612;-52
2024/01/10 17:05:29;;;;;;;50.80;37.30;;;22.60;43.00;;;;;;222269;1264;22569;-50
2024/01/10 17:10:41;;;;;;;50.80;37.50;;;22.70;43.20;;;;;;222957;1266;24327;-49
2024/01/10 17:15:45;;;;;;;48.60;37.30;;;22.80;43.00;;;;;;222768;1264;22517;-53
2024/01/10 17:20:49;;;;;;;56.40;39.20;;;22.70;43.20;;;;;;222650;1260;22713;-50
2024/01/10 17:25:54;;;;;;;53.40;38.70;;;22.90;43.10;;;;;;222547;1265;24215;-49
2024/01/10 17:31:01;;;;;;;51.10;38.70;;;23.00;42.60;;;;;;222148;1266;22760;-54
2024/01/10 17:36:06;;;;;;;54.20;39.70;;;23.00;43.00;;;;;;222594;1266;24263;-51
2024/01/10 17:41:12;;;;;;;54.70;41.30;;;22.80;44.00;;;;;;222132;1261;24170;-51
2024/01/10 17:46:24;;;;;;;57.70;40.80;;;22.70;44.40;;;;;;222262;1256;296489;-50
2024/01/10 17:51:31;;;;;;;55.50;41.00;;;22.60;45.40;;;;;;222612;1267;22573;-51
2024/01/10 17:56:39;;;;;;;56.50;41.00;;;22.60;45.90;;;;;;222611;1254;22629;-50
2024/01/10 18:01:44;;;;;;;55.80;41.70;;;22.50;45.90;;;;;;222416;1259;24341;-51
2024/01/10 18:06:48;;;;;;;55.90;41.60;;;22.50;46.00;;;;;;222465;1265;24216;-49
2024/01/10 18:11:53;;;;;;;57.00;43.10;;;22.40;46.10;;;;;;222572;1261;22636;-51
2024/01/10 18:16:58;;;;;;;63.10;45.50;;;22.40;46.60;;;;;;222554;1265;25288;-51
2024/01/10 18:22:03;;;;;;;58.50;43.60;;;22.50;46.40;;;;;;222674;1266;24260;-50
2024/01/10 18:27:07;;;;;;;70.90;49.90;;;22.50;46.10;;;;;;222649;1266;24273;-52
2024/01/10 18:32:11;;;;;;;117.80;72.40;;;22.70;45.70;;;;;;223131;1265;24316;-51
2024/01/10 18:37:17;;;;;;;154.70;87.00;;;22.80;45.40;;;;;;222769;1260;24236;-49
2024/01/10 18:42:21;;;;;;;170.90;91.70;;;23.00;45.50;;;;;;222572;1262;22569;-52
2024/01/10 18:47:26;;;;;;;159.50;87.30;;;23.00;46.60;;;;;;222494;1265;24194;-54
2024/01/10 18:52:36;;;;;;;144.40;82.70;;;23.00;46.00;;;;;;222169;1260;22528;-53
2024/01/10 18:58:01;;;;;;;137.00;81.90;;;22.90;47.00;;;;;;222790;1259;22524;-55
2024/01/10 19:03:25;;;;;;;143.60;81.00;;;22.80;46.40;;;;;;222466;1253;22606;-55
2024/01/10 19:09:23;;;;;;;133.70;79.70;;;22.60;46.90;;;;;;222358;1254;24246;-51
2024/01/10 19:14:44;;;;;;;133.20;76.10;;;22.50;47.00;;;;;;222708;1260;24199;-54
2024/01/10 19:21:32;;;;;;;124.80;76.50;;;22.40;47.60;;;;;;222411;1261;22581;-55
2024/01/10 19:27:31;;;;;;;127.30;78.80;;;22.30;48.10;;;;;;222914;1264;26506;-49
2024/01/10 19:32:36;;;;;;;133.50;80.60;;;22.40;47.80;;;;;;222075;1262;25619;-52
2024/01/10 19:37:40;;;;;;;129.70;79.20;;;22.40;48.00;;;;;;221863;1267;22525;-51
2024/01/10 19:42:44;;;;;;;134.70;78.40;;;22.50;47.40;;;;;;222061;1264;22480;-51
2024/01/10 19:47:49;;;;;;;127.90;79.40;;;22.60;46.80;;;;;;222127;1263;24193;-50
2024/01/10 19:52:54;;;;;;;119.60;75.20;;;22.70;46.90;;;;;;222114;1269;22877;-50
2024/01/10 19:57:59;;;;;;;125.40;76.30;;;22.90;48.10;;;;;;221569;1269;22527;-51
2024/01/10 20:03:07;;;;;;;120.80;75.90;;;22.90;48.70;;;;;;221719;1263;22565;-50
2024/01/10 20:08:12;;;;;;;112.20;74.10;;;23.00;47.50;;;;;;222057;1256;22847;-47
2024/01/10 20:13:20;;;;;;;111.80;75.50;;;23.00;48.10;;;;;;222677;1263;24180;-47
2024/01/10 20:18:25;;;;;;;112.40;73.90;;;22.80;48.50;;;;;;223305;1263;22520;-47
2024/01/10 20:23:34;;;;;;;118.10;75.10;;;22.60;49.70;;;;;;222801;1264;22629;-48
2024/01/10 20:28:39;;;;;;;117.20;74.20;;;22.50;49.90;;;;;;222864;1257;24256;-46
2024/01/10 20:33:48;;;;;;;116.60;74.50;;;22.50;51.80;;;;;;222657;1266;24314;-48
2024/01/10 20:38:57;;;;;;;114.30;74.30;;;22.50;51.40;;;;;;222733;1266;25448;-48
2024/01/10 20:44:09;;;;;;;110.70;73.20;;;22.50;52.00;;;;;;222709;1263;26651;-48
2024/01/10 20:49:24;;;;;;;115.90;73.20;;;22.60;51.50;;;;;;222021;1263;22534;-46
2024/01/10 20:54:28;;;;;;;106.40;72.10;;;22.60;50.60;;;;;;221906;1259;24362;-46
2024/01/10 20:59:33;;;;;;;109.10;73.20;;;22.70;49.70;;;;;;221918;1265;22554;-47
2024/01/10 21:04:41;;;;;;;110.60;72.30;;;22.60;50.00;;;;;;221922;1270;22740;-49
2024/01/10 21:09:52;;;;;;;109.50;74.30;;;22.70;49.70;;;;;;221767;1271;24240;-49
2024/01/10 21:15:04;;;;;;;116.00;75.60;;;22.50;50.10;;;;;;221627;1263;22650;-46
2024/01/10 21:20:29;;;;;;;111.30;74.20;;;22.50;50.50;;;;;;221975;1267;22584;-49
2024/01/10 21:25:47;;;;;;;105.60;71.90;;;22.40;49.50;;;;;;222019;1267;25284;-48
2024/01/10 21:30:59;;;;;;;104.50;72.50;;;22.50;49.00;;;;;;222856;1250;24308;-48
2024/01/10 21:36:05;;;;;;;106.50;72.00;;;22.60;48.20;;;;;;222300;1268;24213;-47
2024/01/10 21:41:13;;;;;;;119.00;75.70;;;22.60;48.00;;;;;;222652;1266;24256;-49
2024/01/10 21:46:18;;;;;;;110.60;73.40;;;22.70;48.10;;;;;;222666;1265;23444;-48
2024/01/10 21:51:23;;;;;;;114.20;77.90;;;22.80;47.70;;;;;;222780;1255;25315;-46
2024/01/10 21:56:27;;;;;;;109.80;76.90;;;22.80;46.60;;;;;;222976;1265;22908;-47
2024/01/10 22:01:31;;;;;;;104.30;75.30;;;22.80;46.90;;;;;;222517;1260;25476;-48
2024/01/10 22:06:37;;;;;;;106.40;74.30;;;22.80;47.10;;;;;;222612;1260;24442;-46
2024/01/10 22:11:44;;;;;;;105.20;74.20;;;22.80;46.60;;;;;;222466;1262;23224;-47
2024/01/10 22:16:54;;;;;;;;;;;22.90;46.00;;;;;;222574;1266;22643;-48
2024/01/10 22:22:02;;;;;;;110.80;72.80;;;22.80;45.90;;;;;;222809;1256;22519;-47
2024/01/10 22:27:06;;;;;;;102.20;71.40;;;22.80;46.10;;;;;;221473;1274;25365;-46
2024/01/10 22:32:12;;;;;;;99.10;70.10;;;22.80;45.50;;;;;;221236;1270;24151;-47
2024/01/10 22:37:21;;;;;;;98.90;70.30;;;22.80;45.30;;;;;;221432;1271;22656;-47
2024/01/10 22:42:25;;;;;;;100.00;69.20;;;22.80;45.90;;;;;;221431;1271;22698;-46
2024/01/10 22:47:32;;;;;;;98.10;68.20;;;22.80;46.10;;;;;;220936;1274;25579;-48
2024/01/10 22:52:38;;;;;;;94.40;67.00;;;22.80;45.90;;;;;;221333;1263;22527;-48
2024/01/10 22:57:43;;;;;;;92.20;66.00;;;22.90;46.50;;;;;;221419;1265;25410;-46
2024/01/10 23:02:49;;;;;;;96.40;65.50;;;23.00;46.80;;;;;;221222;1266;22533;-47
2024/01/10 23:07:54;;;;;;;95.00;66.00;;;23.00;46.70;;;;;;221295;1265;25501;-46
2024/01/10 23:12:58;;;;;;;90.10;64.20;;;23.10;46.60;;;;;;221367;1272;24204;-47
2024/01/10 23:18:03;;;;;;;91.60;64.40;;;23.20;46.90;;;;;;222649;1266;22666;-47
2024/01/10 23:23:08;;;;;;;88.00;64.20;;;23.30;46.90;;;;;;222875;1266;22527;-48
2024/01/10 23:28:12;;;;;;;88.50;63.20;;;23.30;47.00;;;;;;222934;1262;25402;-45
2024/01/10 23:33:16;;;;;;;91.20;62.90;;;23.10;47.00;;;;;;222643;1267;22522;-47
2024/01/10 23:38:21;;;;;;;91.60;62.10;;;23.00;47.40;;;;;;222654;1260;24224;-52
2024/01/10 23:43:25;;;;;;;80.90;61.50;;;22.90;52.30;;;;;;222738;1266;22698;-54
2024/01/10 23:48:30;;;;;;;85.50;64.40;;;22.90;52.30;;;;;;222797;1266;22540;-53
2024/01/10 23:53:35;;;;;;;87.10;61.70;;;23.10;52.50;;;;;;222247;1267;25303;-52
2024/01/10 23:58:39;;;;;;;89.60;60.50;;;22.90;52.00;;;;;;222310;1266;24976;-55
